Time;durP1;ratioP1;P1;durP2;ratioP2;P2;SDS_P1;SDS_P2;PMS_P1;PMS_P2;Temp;Humidity;BMP_temperature;BMP_pressure;BME280_temperature;BME280_humidity;BME280_pressure;Samples;Min_cycle;Max_cycle;Signal;HPM_P1;HPM_P2
2022/01/16 00:02:07;;;;;;;46.65;21.15;;;-1.60;99.90;;;;;;5042551;28;20037;-55
2022/01/16 00:04:09;;;;;;;56.80;22.70;;;-1.60;99.90;;;;;;5050755;28;20040;-57
2022/01/16 00:06:39;;;;;;;46.22;21.08;;;-1.50;99.90;;;;;;5050208;28;20052;-57
2022/01/16 00:09:06;;;;;;;46.15;20.30;;;-1.50;99.90;;;;;;5032980;28;20464;-56
2022/01/16 00:11:35;;;;;;;43.35;18.67;;;-1.40;99.90;;;;;;5050797;28;20098;-56
2022/01/16 00:14:03;;;;;;;41.42;20.23;;;-1.40;99.90;;;;;;5050725;28;20485;-57
2022/01/16 00:16:31;;;;;;;42.55;20.85;;;-1.30;99.90;;;;;;5048279;28;20098;-55
2022/01/16 00:18:58;;;;;;;43.00;20.20;;;-1.30;99.90;;;;;;5054390;28;20044;-57
2022/01/16 00:21:31;;;;;;;37.78;18.77;;;-1.30;99.90;;;;;;5056768;28;20063;-54
2022/01/16 00:23:58;;;;;;;34.25;16.25;;;-1.20;99.90;;;;;;5064978;28;20041;-56
2022/01/16 00:26:25;;;;;;;34.75;15.75;;;-1.30;99.90;;;;;;5073721;28;20044;-56
2022/01/16 00:28:53;;;;;;;31.38;15.55;;;-1.40;99.90;;;;;;5074115;28;20133;-56
2022/01/16 00:31:21;;;;;;;;;;;-1.40;99.90;;;;;;5074607;28;20098;-53
2022/01/16 00:33:48;;;;;;;;;;;-1.50;99.90;;;;;;5074589;28;19967;-55
2022/01/16 00:36:18;;;;;;;38.83;16.42;;;-1.50;99.90;;;;;;5073435;28;20308;-55
2022/01/16 00:38:47;;;;;;;35.80;16.38;;;-1.60;99.90;;;;;;5074273;28;20443;-56
2022/01/16 00:41:17;;;;;;;34.22;17.33;;;-1.60;99.90;;;;;;5073677;28;20040;-55
2022/01/16 00:43:45;;;;;;;37.47;16.90;;;-1.70;99.90;;;;;;5074035;28;20041;-57
2022/01/16 00:46:12;;;;;;;;;;;-1.70;99.90;;;;;;5073933;28;20440;-57
2022/01/16 00:48:39;;;;;;;34.40;15.93;;;-1.70;99.90;;;;;;5073637;28;19943;-57
2022/01/16 00:51:06;;;;;;;35.45;17.50;;;-1.70;99.90;;;;;;5074003;28;20435;-57
2022/01/16 00:53:33;;;;;;;35.50;15.70;;;-1.70;99.90;;;;;;5073936;28;20161;-55
2022/01/16 00:56:00;;;;;;;25.65;13.00;;;-1.70;99.90;;;;;;5073199;28;20044;-55
2022/01/16 00:58:27;;;;;;;31.58;13.52;;;-1.80;99.90;;;;;;5073716;28;20106;-54
2022/01/16 01:00:54;;;;;;;26.60;12.75;;;-2.10;99.90;;;;;;5073513;28;20094;-56
2022/01/16 01:03:21;;;;;;;27.85;12.48;;;-2.10;99.90;;;;;;5073761;28;20517;-56
2022/01/16 01:05:48;;;;;;;27.05;11.80;;;-2.20;99.90;;;;;;5073029;28;20127;-55
2022/01/16 01:08:15;;;;;;;28.77;13.23;;;-2.20;99.90;;;;;;5073690;28;20090;-56
2022/01/16 01:10:46;;;;;;;22.80;10.68;;;-2.10;99.90;;;;;;5073320;28;20088;-56
2022/01/16 01:16:02;;;;;;;24.73;10.77;;;-2.10;99.90;;;;;;5072957;28;20080;-56
2022/01/16 01:18:32;;;;;;;20.63;10.13;;;-2.10;99.90;;;;;;5073303;28;20127;-57
2022/01/16 01:21:02;;;;;;;23.55;10.70;;;-2.10;99.90;;;;;;5073269;28;20047;-55
2022/01/16 01:23:30;;;;;;;28.20;11.43;;;-2.10;99.90;;;;;;5073078;28;20036;-56
2022/01/16 01:25:57;;;;;;;23.20;10.18;;;-2.10;99.90;;;;;;5072006;28;20044;-57
2022/01/16 01:28:24;;;;;;;21.10;10.20;;;-2.00;99.90;;;;;;5073145;28;20095;-57
2022/01/16 01:30:51;;;;;;;21.23;10.38;;;-2.00;99.90;;;;;;5073402;28;20457;-55
2022/01/16 01:33:20;;;;;;;24.17;10.55;;;-2.00;99.90;;;;;;5072206;28;20520;-54
2022/01/16 01:35:47;;;;;;;29.05;11.23;;;-2.20;99.90;;;;;;5071816;28;20044;-54
2022/01/16 01:38:17;;;;;;;;;;;-2.40;99.90;;;;;;5072972;28;20405;-55
2022/01/16 01:40:48;;;;;;;22.60;10.07;;;-2.30;99.90;;;;;;5072891;28;19920;-55
2022/01/16 01:51:42;;;;;;;20.95;10.02;;;-2.20;99.90;;;;;;5072698;28;20398;-57
2022/01/16 01:54:09;;;;;;;21.60;9.90;;;-2.20;99.90;;;;;;5072580;28;20049;-57
2022/01/16 01:56:37;;;;;;;25.27;10.57;;;-2.20;99.90;;;;;;5072217;28;20044;-55
2022/01/16 01:59:04;;;;;;;20.52;10.18;;;-2.20;99.90;;;;;;5072508;28;20459;-55
2022/01/16 02:01:31;;;;;;;18.48;9.43;;;-2.20;99.90;;;;;;5072559;28;20041;-56
2022/01/16 02:03:59;;;;;;;19.92;9.85;;;-2.20;99.90;;;;;;5072296;28;20040;-53
2022/01/16 02:06:29;;;;;;;16.75;8.43;;;-2.20;99.90;;;;;;5072131;28;20051;-56
2022/01/16 02:08:59;;;;;;;20.73;9.85;;;-2.20;99.90;;;;;;5072545;28;20090;-54
2022/01/16 02:11:29;;;;;;;18.42;9.40;;;-2.30;99.90;;;;;;5072193;28;20056;-56
2022/01/16 02:14:27;;;;;;;16.20;8.32;;;-2.40;99.90;;;;;;5072440;28;20092;-55
2022/01/16 02:28:23;;;;;;;17.02;8.07;;;-2.90;99.90;;;;;;5072203;28;20068;-57
2022/01/16 02:37:02;;;;;;;19.25;9.10;;;-2.80;99.90;;;;;;5110795;22;20389;-49
2022/01/16 02:39:51;;;;;;;19.20;8.57;;;-2.70;99.90;;;;;;5077370;28;20062;-50
2022/01/16 02:42:24;;;;;;;17.38;7.72;;;-2.80;99.90;;;;;;5091996;28;20040;-50
2022/01/16 02:45:01;;;;;;;19.50;9.00;;;-2.80;99.90;;;;;;5091923;28;20068;-50
2022/01/16 02:47:28;;;;;;;16.60;8.45;;;-2.80;99.90;;;;;;5091587;28;20518;-48
2022/01/16 02:50:15;;;;;;;16.15;7.60;;;-2.70;99.90;;;;;;5091852;28;20502;-51
2022/01/16 02:52:43;;;;;;;16.23;7.53;;;-2.70;99.90;;;;;;5092002;28;20044;-47
2022/01/16 02:55:13;;;;;;;19.05;8.70;;;-2.70;99.90;;;;;;5091634;28;20048;-51
2022/01/16 02:57:40;;;;;;;15.63;6.45;;;-2.80;99.90;;;;;;5091811;28;20101;-49
2022/01/16 03:00:08;;;;;;;12.25;6.55;;;-2.90;99.90;;;;;;5073712;28;20681;-49
2022/01/16 03:02:35;;;;;;;15.95;6.60;;;-3.00;99.90;;;;;;5091797;28;20036;-49
2022/01/16 03:05:03;;;;;;;15.35;8.18;;;-3.00;99.90;;;;;;5091693;28;20048;-50
2022/01/16 03:07:30;;;;;;;17.02;7.38;;;-3.10;99.90;;;;;;5091390;28;20063;-49
2022/01/16 03:12:53;;;;;;;19.73;6.90;;;-3.20;99.90;;;;;;5092070;28;20044;-50
2022/01/16 03:15:21;;;;;;;16.63;6.88;;;-3.10;99.90;;;;;;5091278;28;20048;-50
2022/01/16 03:23:17;;;;;;;12.95;4.85;;;-3.00;99.90;;;;;;5091647;28;20119;-50
2022/01/16 03:25:46;;;;;;;15.75;7.20;;;-3.10;99.90;;;;;;5091156;28;20131;-51
2022/01/16 03:28:13;;;;;;;13.70;6.20;;;-3.10;99.90;;;;;;5091437;28;20044;-50
2022/01/16 03:30:40;;;;;;;;;;;-3.10;99.90;;;;;;5091962;28;20043;-50
2022/01/16 03:33:08;;;;;;;11.65;5.78;;;-3.10;99.90;;;;;;5091198;28;20291;-50
2022/01/16 03:35:35;;;;;;;13.35;6.38;;;-3.10;99.90;;;;;;5090955;28;20388;-49
2022/01/16 03:38:03;;;;;;;13.43;5.70;;;-3.20;99.90;;;;;;5091451;28;20044;-49
2022/01/16 03:40:30;;;;;;;12.68;5.93;;;-3.20;99.90;;;;;;5091387;28;20056;-48
2022/01/16 03:43:04;;;;;;;11.93;6.03;;;-3.30;99.90;;;;;;5091182;28;20457;-48
2022/01/16 03:45:31;;;;;;;10.35;5.43;;;-3.30;99.90;;;;;;5090748;28;20044;-49
2022/01/16 03:47:58;;;;;;;12.43;6.25;;;-3.30;99.90;;;;;;5092854;28;20442;-48
2022/01/16 03:50:25;;;;;;;12.73;6.32;;;-3.30;99.90;;;;;;5095330;28;20076;-47
2022/01/16 03:52:52;;;;;;;12.02;5.97;;;-3.30;99.90;;;;;;5095222;28;20048;-48
2022/01/16 03:55:20;;;;;;;13.88;6.00;;;-3.40;99.90;;;;;;5094705;28;20492;-51
2022/01/16 03:57:47;;;;;;;13.93;5.63;;;-3.50;99.90;;;;;;5095207;28;20043;-47
2022/01/16 04:00:14;;;;;;;12.55;6.13;;;-3.40;99.90;;;;;;5094777;28;20075;-47
2022/01/16 04:02:40;;;;;;;;;;;-3.40;99.90;;;;;;5095415;28;20089;-48
2022/01/16 04:05:08;;;;;;;9.32;4.80;;;-3.40;99.90;;;;;;5094736;28;19924;-48
2022/01/16 04:07:35;;;;;;;;;;;-3.40;99.90;;;;;;5095269;28;20544;-49
2022/01/16 04:10:08;;;;;;;13.77;6.18;;;-3.50;99.90;;;;;;5095024;28;19966;-47
2022/01/16 04:12:38;;;;;;;12.05;5.47;;;-3.50;99.90;;;;;;5094804;28;20077;-48
2022/01/16 04:17:40;;;;;;;15.32;6.13;;;-3.60;99.90;;;;;;5094881;28;20044;-50
2022/01/16 04:20:08;;;;;;;14.32;6.20;;;-3.60;99.90;;;;;;5094682;28;20052;-50
2022/01/16 04:22:35;;;;;;;13.15;5.50;;;-3.60;99.90;;;;;;5094616;28;20093;-49
2022/01/16 04:25:02;;;;;;;11.50;5.05;;;-3.60;99.90;;;;;;5094384;28;20064;-47
2022/01/16 04:27:29;;;;;;;13.68;6.43;;;-3.70;99.90;;;;;;5094702;28;20492;-49
2022/01/16 04:29:56;;;;;;;11.95;4.88;;;-3.60;99.90;;;;;;5094527;28;20119;-49
2022/01/16 04:32:22;;;;;;;10.77;5.03;;;-3.60;99.90;;;;;;5094620;28;20445;-48
2022/01/16 04:34:49;;;;;;;12.63;6.15;;;-3.50;99.90;;;;;;5094175;28;20119;-48
2022/01/16 04:37:17;;;;;;;14.02;5.43;;;-3.50;99.90;;;;;;5094052;28;20048;-47
2022/01/16 04:39:50;;;;;;;9.18;3.47;;;-3.60;99.90;;;;;;5094510;28;20043;-49
2022/01/16 04:45:04;;;;;;;15.30;6.45;;;-3.80;99.90;;;;;;5094005;28;20078;-47
2022/01/16 04:47:31;;;;;;;16.48;6.65;;;-3.90;99.90;;;;;;5094201;28;20250;-48
2022/01/16 04:49:58;;;;;;;12.98;5.70;;;-3.80;99.90;;;;;;5094274;28;20459;-47
2022/01/16 04:52:24;;;;;;;17.52;6.57;;;-3.80;99.90;;;;;;5094027;28;20101;-49
2022/01/16 04:54:52;;;;;;;16.77;6.68;;;-3.80;99.90;;;;;;5094055;28;20095;-48
2022/01/16 04:57:19;;;;;;;19.50;7.95;;;-3.70;99.90;;;;;;5093668;28;20044;-49
2022/01/16 04:59:45;;;;;;;20.08;8.48;;;-3.60;99.90;;;;;;5092825;28;20087;-52
2022/01/16 05:02:12;;;;;;;15.10;6.25;;;-3.60;99.90;;;;;;5093867;28;20048;-49
2022/01/16 05:04:39;;;;;;;16.65;6.85;;;-3.60;99.90;;;;;;5093873;28;20087;-48
2022/01/16 05:07:06;;;;;;;16.42;7.03;;;-3.70;99.90;;;;;;5093589;28;20040;-47
2022/01/16 05:09:33;;;;;;;10.10;5.18;;;-3.70;99.90;;;;;;5093572;28;20115;-47
2022/01/16 05:12:07;;;;;;;12.25;5.47;;;-3.90;99.90;;;;;;5093908;28;20097;-48
2022/01/16 05:17:19;;;;;;;12.00;4.68;;;-3.80;99.90;;;;;;5093300;28;20044;-47
2022/01/16 05:19:46;;;;;;;12.18;5.65;;;-3.90;99.90;;;;;;5093549;28;20067;-48
2022/01/16 05:22:13;;;;;;;8.90;4.10;;;-3.90;99.90;;;;;;5093332;28;20044;-47
2022/01/16 05:24:40;;;;;;;11.77;5.13;;;-4.00;99.90;;;;;;5093456;28;20071;-47
2022/01/16 05:27:07;;;;;;;11.13;4.18;;;-3.90;99.90;;;;;;5093197;28;20089;-48
2022/01/16 05:29:33;;;;;;;;;;;-4.00;99.90;;;;;;5093703;28;20044;-47
2022/01/16 05:32:00;;;;;;;8.98;4.63;;;-3.90;99.90;;;;;;5093296;28;19966;-48
2022/01/16 05:34:29;;;;;;;16.08;6.40;;;-4.00;99.90;;;;;;5093215;28;20044;-46
2022/01/16 05:36:56;;;;;;;32.95;13.43;;;-4.00;99.90;;;;;;5092802;28;20068;-48
2022/01/16 05:39:23;;;;;;;47.63;18.77;;;-3.90;99.90;;;;;;5093391;28;20048;-49
2022/01/16 05:41:50;;;;;;;70.60;25.83;;;-3.90;99.90;;;;;;5093058;28;20610;-47
2022/01/16 05:44:17;;;;;;;42.72;16.13;;;-3.90;99.90;;;;;;5092848;28;20097;-47
2022/01/16 05:46:44;;;;;;;21.55;9.70;;;-4.00;99.90;;;;;;5092634;28;20493;-47
2022/01/16 05:49:11;;;;;;;16.92;8.73;;;-4.00;99.90;;;;;;5093032;28;20044;-48
2022/01/16 05:51:38;;;;;;;18.42;9.02;;;-4.00;99.90;;;;;;5093313;28;20040;-48
2022/01/16 05:54:05;;;;;;;16.27;7.28;;;-4.00;99.90;;;;;;5092719;28;20052;-48
2022/01/16 05:56:32;;;;;;;15.55;7.93;;;-4.00;99.90;;;;;;5092497;28;20127;-47
2022/01/16 05:58:59;;;;;;;14.70;7.63;;;-4.00;99.90;;;;;;5092705;28;20048;-47
2022/01/16 06:01:26;;;;;;;16.55;7.05;;;-4.00;99.90;;;;;;5092819;28;20127;-49
2022/01/16 06:03:52;;;;;;;14.70;5.50;;;-4.00;99.90;;;;;;5092903;28;20040;-48
2022/01/16 06:06:19;;;;;;;15.55;5.03;;;-4.10;99.90;;;;;;5092086;28;20044;-50
2022/01/16 06:08:48;;;;;;;10.85;4.38;;;-4.20;99.90;;;;;;5092822;28;20040;-46
2022/01/16 06:11:15;;;;;;;12.38;4.68;;;-4.20;99.90;;;;;;5092276;28;20562;-47
2022/01/16 06:13:42;;;;;;;13.13;5.80;;;-4.20;99.90;;;;;;5092380;28;20043;-48
2022/01/16 06:16:09;;;;;;;15.40;6.55;;;-4.10;99.90;;;;;;5092383;28;20036;-46
2022/01/16 06:18:36;;;;;;;;;;;-4.00;99.90;;;;;;5092963;28;20040;-48
2022/01/16 06:21:03;;;;;;;15.27;8.20;;;-3.90;99.90;;;;;;5092406;28;19923;-48
2022/01/16 06:23:30;;;;;;;15.40;6.55;;;-3.90;99.90;;;;;;5092145;28;20173;-47
2022/01/16 06:25:57;;;;;;;11.90;5.32;;;-3.80;99.90;;;;;;5091874;28;20127;-47
2022/01/16 06:28:25;;;;;;;14.57;5.47;;;-3.90;99.90;;;;;;5092620;28;20389;-48
2022/01/16 06:30:52;;;;;;;12.95;6.07;;;-3.90;99.90;;;;;;5092652;28;20586;-48
2022/01/16 06:33:19;;;;;;;13.40;6.00;;;-3.80;99.90;;;;;;5092247;28;20119;-47
2022/01/16 06:35:46;;;;;;;13.20;5.18;;;-3.80;99.90;;;;;;5091639;28;20154;-47
2022/01/16 06:38:13;;;;;;;12.70;5.40;;;-3.80;99.90;;;;;;5092026;28;20079;-49
2022/01/16 06:40:39;;;;;;;13.70;5.80;;;-3.90;99.90;;;;;;5092219;28;20480;-47
2022/01/16 06:43:07;;;;;;;15.65;6.78;;;-4.00;99.90;;;;;;5092077;28;20040;-47
2022/01/16 06:45:34;;;;;;;18.40;9.23;;;-4.00;99.90;;;;;;5091699;28;20055;-47
2022/01/16 06:48:01;;;;;;;25.17;9.50;;;-4.00;99.90;;;;;;5092186;28;20123;-48
2022/01/16 06:50:28;;;;;;;20.88;9.15;;;-4.00;99.90;;;;;;5092057;28;20040;-48
2022/01/16 06:52:54;;;;;;;23.33;9.15;;;-4.00;99.90;;;;;;5091866;28;20119;-47
2022/01/16 06:55:21;;;;;;;27.92;12.00;;;-4.00;99.90;;;;;;5091564;28;20040;-48
2022/01/16 06:57:48;;;;;;;16.98;5.90;;;-4.00;99.90;;;;;;5091762;28;20047;-47
2022/01/16 07:00:15;;;;;;;21.40;7.97;;;-4.10;99.90;;;;;;5091738;28;20044;-48
2022/01/16 07:02:42;;;;;;;22.35;7.75;;;-4.20;99.90;;;;;;5091852;28;20048;-48
2022/01/16 07:05:09;;;;;;;21.40;7.90;;;-4.30;99.90;;;;;;5091503;28;20048;-48
2022/01/16 07:07:36;;;;;;;21.02;8.50;;;-4.30;99.90;;;;;;5091063;28;20130;-48
2022/01/16 07:10:04;;;;;;;17.35;7.32;;;-4.20;99.90;;;;;;5091657;28;20040;-48
2022/01/16 07:12:31;;;;;;;20.20;9.00;;;-4.20;99.90;;;;;;5091659;28;20089;-47
2022/01/16 07:14:57;;;;;;;24.42;10.02;;;-4.10;99.90;;;;;;5091551;28;20073;-49
2022/01/16 07:17:24;;;;;;;27.50;10.50;;;-4.10;99.90;;;;;;5091263;28;20496;-49
2022/01/16 07:19:51;;;;;;;60.10;18.23;;;-4.10;99.90;;;;;;5091618;28;20052;-48
2022/01/16 07:22:21;;;;;;;36.40;12.82;;;-4.10;99.90;;;;;;5091618;28;20572;-48
2022/01/16 07:24:50;;;;;;;28.80;9.80;;;-4.00;99.90;;;;;;5095698;28;20047;-48
2022/01/16 07:27:18;;;;;;;25.40;10.70;;;-3.90;99.90;;;;;;5095394;28;20044;-47
2022/01/16 07:29:45;;;;;;;26.48;9.32;;;-3.90;99.90;;;;;;5095856;28;20039;-47
2022/01/16 07:32:12;;;;;;;20.05;9.55;;;-3.90;99.90;;;;;;5095665;28;20047;-47
2022/01/16 07:34:39;;;;;;;20.85;8.05;;;-4.00;99.90;;;;;;5095431;28;20040;-48
2022/01/16 07:37:05;;;;;;;19.67;8.73;;;-4.00;99.90;;;;;;5094419;28;20086;-47
2022/01/16 07:39:32;;;;;;;25.55;9.70;;;-4.10;99.90;;;;;;5095523;28;20597;-47
2022/01/16 07:41:59;;;;;;;18.27;7.97;;;-4.10;99.90;;;;;;5078791;28;20102;-48
2022/01/16 07:44:28;;;;;;;18.80;8.60;;;-4.10;99.90;;;;;;5075064;28;20431;-48
2022/01/16 07:46:55;;;;;;;15.85;8.20;;;-4.10;99.90;;;;;;5074694;28;20469;-47
2022/01/16 07:49:22;;;;;;;12.35;5.75;;;-4.20;99.90;;;;;;5074829;28;20066;-47
2022/01/16 07:51:48;;;;;;;14.25;7.53;;;-4.10;99.90;;;;;;5085723;28;20076;-47
2022/01/16 07:54:15;;;;;;;18.20;8.93;;;-4.00;99.90;;;;;;5095284;28;20036;-47
2022/01/16 07:56:42;;;;;;;18.48;9.82;;;-4.00;99.90;;;;;;5083165;28;20114;-48
2022/01/16 07:59:09;;;;;;;16.63;8.10;;;-4.00;99.90;;;;;;5075021;28;20040;-47
2022/01/16 08:01:36;;;;;;;15.70;7.20;;;-3.90;99.90;;;;;;5074820;28;20166;-48
2022/01/16 08:04:04;;;;;;;59.20;19.17;;;-3.80;99.90;;;;;;5074781;28;20044;-47
2022/01/16 08:06:31;;;;;;;75.00;22.83;;;-3.80;99.90;;;;;;5074097;28;20135;-47
2022/01/16 08:08:58;;;;;;;116.85;33.53;;;-3.80;99.90;;;;;;5074571;28;20036;-47
2022/01/16 08:11:25;;;;;;;43.70;15.27;;;-3.80;99.90;;;;;;5074663;28;20044;-47
2022/01/16 08:13:51;;;;;;;15.77;7.50;;;-3.80;99.90;;;;;;5074432;28;20045;-48
2022/01/16 08:16:18;;;;;;;21.30;8.52;;;-3.80;99.90;;;;;;5076537;28;20041;-50
2022/01/16 08:18:45;;;;;;;24.92;11.15;;;-3.90;99.90;;;;;;5074572;28;20048;-47
2022/01/16 08:21:12;;;;;;;28.40;10.75;;;-3.90;99.90;;;;;;5074391;28;20041;-48
2022/01/16 08:23:39;;;;;;;25.45;12.45;;;-3.90;99.90;;;;;;5074698;28;20049;-49
2022/01/16 08:26:06;;;;;;;29.10;13.15;;;-3.80;99.90;;;;;;5073799;28;20051;-47
2022/01/16 08:28:32;;;;;;;23.05;11.38;;;-3.70;99.90;;;;;;5074442;28;20079;-48
2022/01/16 08:30:59;;;;;;;24.50;11.65;;;-3.60;99.90;;;;;;5074172;28;20113;-48
2022/01/16 08:33:26;;;;;;;24.38;12.88;;;-3.60;99.90;;;;;;5074176;28;20055;-47
2022/01/16 08:35:53;;;;;;;25.85;13.48;;;-3.60;99.90;;;;;;5084817;22;20078;-56
2022/01/16 08:38:22;;;;;;;41.70;17.20;;;-3.60;99.90;;;;;;5062808;28;20044;-55
2022/01/16 08:40:49;;;;;;;85.65;33.25;;;-3.60;99.90;;;;;;5053950;28;20041;-54
2022/01/16 08:43:16;;;;;;;107.25;39.05;;;-3.50;99.90;;;;;;5054036;28;20501;-54
2022/01/16 08:45:44;;;;;;;144.35;47.97;;;-3.30;99.90;;;;;;5053407;28;20049;-57
2022/01/16 08:48:11;;;;;;;42.17;17.88;;;-3.20;99.90;;;;;;5054023;28;20037;-57
2022/01/16 08:50:39;;;;;;;42.72;19.05;;;-3.10;99.90;;;;;;5053903;28;20489;-55
2022/01/16 08:53:06;;;;;;;34.67;16.83;;;-3.00;99.90;;;;;;5054014;28;20053;-55
2022/01/16 08:55:34;;;;;;;58.95;24.00;;;-2.90;99.90;;;;;;5053331;28;20452;-56
2022/01/16 08:58:02;;;;;;;32.78;16.13;;;-2.80;99.90;;;;;;5053420;28;20037;-55
2022/01/16 09:00:29;;;;;;;28.77;12.82;;;-2.80;99.90;;;;;;5053856;28;20052;-55
2022/01/16 09:02:57;;;;;;;28.17;13.38;;;-2.80;99.90;;;;;;5053700;28;20052;-55
2022/01/16 09:05:25;;;;;;;28.33;14.00;;;-2.80;99.90;;;;;;5053222;28;20087;-56
2022/01/16 09:07:53;;;;;;;32.13;14.27;;;-2.60;99.90;;;;;;5053499;28;20505;-53
2022/01/16 09:10:20;;;;;;;;;;;-2.60;99.90;;;;;;5053847;28;20087;-59
2022/01/16 09:12:47;;;;;;;25.63;12.70;;;-2.50;99.90;;;;;;5053273;28;19978;-57
2022/01/16 09:15:14;;;;;;;28.30;13.52;;;-2.40;99.90;;;;;;5053131;28;20051;-56
2022/01/16 09:17:42;;;;;;;25.05;13.15;;;-2.30;99.90;;;;;;5053429;28;20045;-57
2022/01/16 09:20:10;;;;;;;30.88;14.85;;;-2.20;99.90;;;;;;5053191;28;20072;-57
2022/01/16 09:22:39;;;;;;;28.98;14.07;;;-2.00;99.90;;;;;;5053231;28;20091;-57
2022/01/16 09:25:07;;;;;;;30.30;14.70;;;-2.00;99.90;;;;;;5052914;28;20060;-57
2022/01/16 09:27:34;;;;;;;33.33;17.52;;;-1.90;99.90;;;;;;5052962;28;20095;-58
2022/01/16 09:30:01;;;;;;;35.38;16.17;;;-1.70;99.90;;;;;;5053266;28;20102;-57
2022/01/16 09:32:28;;;;;;;33.15;17.17;;;-1.60;99.90;;;;;;5052858;28;20087;-56
2022/01/16 09:34:55;;;;;;;30.90;15.70;;;-1.50;99.90;;;;;;5053283;28;20037;-56
2022/01/16 09:37:22;;;;;;;36.58;18.40;;;-1.40;99.90;;;;;;5052575;28;20064;-56
2022/01/16 09:39:50;;;;;;;35.58;17.85;;;-1.20;99.90;;;;;;5052672;28;20045;-55
2022/01/16 09:42:20;;;;;;;32.40;17.30;;;-1.10;99.90;;;;;;5052993;28;20041;-55
2022/01/16 09:44:47;;;;;;;36.47;17.90;;;-1.00;99.90;;;;;;5052637;28;20559;-55
2022/01/16 09:47:14;;;;;;;26.48;14.05;;;-0.80;99.90;;;;;;5052167;28;20041;-56
2022/01/16 09:49:41;;;;;;;28.25;14.20;;;-0.70;99.90;;;;;;5052588;28;20064;-56
2022/01/16 09:52:08;;;;;;;27.02;14.38;;;-0.60;99.90;;;;;;5052603;28;20485;-55
2022/01/16 09:54:38;;;;;;;30.75;15.57;;;-0.60;99.90;;;;;;5052839;28;20082;-54
2022/01/16 09:57:06;;;;;;;46.38;18.05;;;-0.70;99.90;;;;;;5052237;28;20037;-55
2022/01/16 09:59:34;;;;;;;80.88;25.23;;;-0.60;99.90;;;;;;5052348;28;20486;-56
2022/01/16 10:02:02;;;;;;;44.15;18.88;;;-0.50;99.90;;;;;;5052769;28;20049;-56
2022/01/16 10:04:35;;;;;;;26.33;14.10;;;-0.30;99.90;;;;;;5052415;28;20045;-56
2022/01/16 10:07:05;;;;;;;26.23;13.45;;;-0.10;99.90;;;;;;5051990;28;20044;-55
2022/01/16 10:09:38;;;;;;;31.60;15.43;;;0.10;99.90;;;;;;5052380;28;20041;-56
2022/01/16 10:12:14;;;;;;;41.58;20.75;;;0.30;99.90;;;;;;5052444;28;20051;-56
2022/01/16 10:14:52;;;;;;;36.15;18.52;;;0.30;99.90;;;;;;5052305;28;20041;-58
2022/01/16 10:17:25;;;;;;;36.10;18.08;;;0.40;99.90;;;;;;5051977;28;20048;-55
2022/01/16 10:20:02;;;;;;;30.23;16.08;;;0.50;99.90;;;;;;5052176;28;20063;-58
2022/01/16 10:22:40;;;;;;;30.85;16.10;;;0.50;99.90;;;;;;5052247;28;20047;-55
2022/01/16 10:25:08;;;;;;;22.77;11.10;;;0.50;99.90;;;;;;5051854;28;20490;-56
2022/01/16 10:27:38;;;;;;;34.42;14.13;;;0.50;99.90;;;;;;5052116;28;20391;-56
2022/01/16 10:30:07;;;;;;;27.83;13.60;;;0.30;99.90;;;;;;5052473;28;20048;-56
2022/01/16 10:32:39;;;;;;;23.65;13.15;;;0.20;99.90;;;;;;5071090;28;20064;-57
2022/01/16 10:35:08;;;;;;;32.78;12.57;;;0.20;99.90;;;;;;5071198;28;20501;-53
2022/01/16 10:37:35;;;;;;;31.55;13.00;;;0.20;99.90;;;;;;5068626;28;20068;-54
2022/01/16 10:40:05;;;;;;;;;;;0.30;99.90;;;;;;5072188;28;20040;-54
2022/01/16 10:42:32;;;;;;;23.50;12.05;;;0.40;99.90;;;;;;5071669;28;19920;-56
2022/01/16 10:45:13;;;;;;;25.25;10.50;;;0.60;99.90;;;;;;5071757;28;20040;-56
2022/01/16 10:47:54;;;;;;;28.27;13.20;;;0.70;99.90;;;;;;5071957;28;20055;-54
2022/01/16 10:50:44;;;;;;;32.63;12.77;;;0.90;99.90;;;;;;5071723;28;20051;-55
2022/01/16 10:53:19;;;;;;;26.15;12.18;;;1.00;99.90;;;;;;5071661;28;20044;-58
2022/01/16 10:55:48;;;;;;;30.25;13.60;;;1.10;99.90;;;;;;5071004;28;20094;-55
2022/01/16 10:58:21;;;;;;;28.88;12.45;;;1.10;99.90;;;;;;5070891;28;20045;-57
2022/01/16 11:01:00;;;;;;;25.38;12.18;;;1.20;99.90;;;;;;5071549;28;20416;-55
2022/01/16 11:03:29;;;;;;;30.85;12.55;;;1.30;99.90;;;;;;5071809;28;20053;-57
2022/01/16 11:05:56;;;;;;;17.02;9.75;;;1.30;99.90;;;;;;5070588;28;20079;-59
2022/01/16 11:08:25;;;;;;;15.88;8.57;;;1.40;99.90;;;;;;5071619;28;20055;-56
2022/01/16 11:10:56;;;;;;;19.13;9.32;;;1.40;99.90;;;;;;5071361;28;20524;-58
2022/01/16 11:13:29;;;;;;;16.88;9.23;;;1.50;99.90;;;;;;5071377;28;20106;-57
2022/01/16 11:15:59;;;;;;;17.52;9.30;;;1.60;99.90;;;;;;5071075;28;20481;-57
2022/01/16 11:18:26;;;;;;;18.83;10.43;;;1.60;99.90;;;;;;5071245;28;20525;-55
2022/01/16 11:24:01;;;;;;;19.33;10.48;;;1.80;99.90;;;;;;5071294;28;19928;-56
2022/01/16 11:26:24;;;;;;;19.52;10.82;;;1.80;99.90;;;;;;5070786;28;20071;-53
2022/01/16 11:28:52;;;;;;;21.00;10.30;;;1.80;99.90;;;;;;5070765;28;20047;-56
2022/01/16 11:31:19;;;;;;;19.75;9.88;;;1.90;99.90;;;;;;5071283;28;20550;-56
2022/01/16 11:33:46;;;;;;;20.23;9.88;;;1.90;99.90;;;;;;5071125;28;20040;-56
2022/01/16 11:36:21;;;;;;;18.50;9.55;;;2.00;99.90;;;;;;5070642;28;20393;-55
2022/01/16 11:39:00;;;;;;;18.20;9.27;;;2.10;99.90;;;;;;5071392;28;20044;-55
2022/01/16 11:41:35;;;;;;;;;;;2.20;99.90;;;;;;5071779;28;20048;-54
2022/01/16 11:44:02;;;;;;;15.45;7.85;;;2.30;99.90;;;;;;5071166;28;19921;-56
2022/01/16 11:46:32;;;;;;;14.20;7.95;;;2.40;99.90;;;;;;5068463;28;20405;-55
2022/01/16 11:48:59;;;;;;;16.83;8.10;;;2.40;99.90;;;;;;5069925;28;20048;-56
2022/01/16 11:51:37;;;;;;;13.25;8.00;;;2.50;99.90;;;;;;5070566;28;20053;-56
2022/01/16 11:54:13;;;;;;;10.18;6.75;;;2.50;99.90;;;;;;5069666;28;20036;-56
2022/01/16 11:56:40;;;;;;;14.80;8.25;;;2.50;99.90;;;;;;5070617;28;20131;-54
2022/01/16 11:59:25;;;;;;;13.85;7.80;;;2.50;99.90;;;;;;5070999;28;20041;-56
2022/01/16 12:02:00;;;;;;;17.92;8.20;;;2.60;99.90;;;;;;5071035;28;20037;-56
2022/01/16 12:04:30;;;;;;;17.10;8.15;;;2.70;99.90;;;;;;5071058;28;20400;-55
2022/01/16 12:07:13;;;;;;;13.10;8.07;;;2.70;99.90;;;;;;5070631;28;20562;-56
2022/01/16 12:09:47;;;;;;;15.20;7.53;;;2.80;99.90;;;;;;5073293;28;20536;-56
2022/01/16 12:12:14;;;;;;;14.07;7.75;;;2.80;99.90;;;;;;5074690;28;20040;-53
2022/01/16 12:14:48;;;;;;;15.25;7.55;;;2.80;99.90;;;;;;5073288;28;20123;-55
2022/01/16 12:17:34;;;;;;;14.55;7.60;;;2.80;99.90;;;;;;5073257;28;20040;-55
2022/01/16 12:20:10;;;;;;;14.07;8.00;;;2.70;99.90;;;;;;5073429;28;20045;-55
2022/01/16 12:22:42;;;;;;;15.57;7.65;;;2.80;99.90;;;;;;5073490;28;20048;-56
2022/01/16 12:25:19;;;;;;;13.13;7.63;;;2.80;99.90;;;;;;5072964;28;20492;-56
2022/01/16 12:28:02;;;;;;;17.55;7.75;;;2.90;99.90;;;;;;5073342;28;20040;-57
2022/01/16 12:30:35;;;;;;;13.32;8.05;;;2.90;99.90;;;;;;5071664;28;20045;-52
2022/01/16 12:33:09;;;;;;;15.38;7.68;;;3.00;99.90;;;;;;5073330;28;20043;-54
2022/01/16 12:35:39;;;;;;;12.73;7.82;;;3.10;99.90;;;;;;5071177;28;20513;-56
2022/01/16 12:38:29;;;;;;;15.25;7.45;;;3.30;99.90;;;;;;5073263;28;20033;-55
2022/01/16 12:41:18;;;;;;;14.43;7.63;;;3.30;99.90;;;;;;5065101;28;20059;-56
2022/01/16 12:43:55;;;;;;;14.63;7.78;;;3.40;99.90;;;;;;5073408;28;20070;-54
2022/01/16 12:46:24;;;;;;;10.90;7.05;;;3.50;99.90;;;;;;5073602;28;20041;-55
2022/01/16 12:48:53;;;;;;;12.82;7.60;;;3.60;99.90;;;;;;5074004;28;20052;-55
2022/01/16 12:51:25;;;;;;;15.35;7.95;;;3.60;99.90;;;;;;5073364;28;20040;-53
2022/01/16 12:53:55;;;;;;;14.35;7.97;;;3.70;99.90;;;;;;5071225;28;20059;-55
2022/01/16 12:56:25;;;;;;;16.70;8.20;;;3.80;99.90;;;;;;5073337;28;20119;-55
2022/01/16 12:58:58;;;;;;;16.77;8.35;;;3.70;99.90;;;;;;5073799;28;20102;-55
2022/01/16 13:01:30;;;;;;;13.88;7.95;;;3.60;99.90;;;;;;5073775;28;20046;-56
2022/01/16 13:03:57;;;;;;;15.13;8.45;;;3.70;99.90;;;;;;5072582;28;20047;-53
2022/01/16 13:06:31;;;;;;;13.00;7.30;;;3.90;99.90;;;;;;5072684;28;20128;-55
2022/01/16 13:09:09;;;;;;;12.43;7.35;;;4.00;99.90;;;;;;5073763;28;20048;-55
2022/01/16 13:11:35;;;;;;;14.13;6.88;;;4.20;99.90;;;;;;5073563;28;20045;-53
2022/01/16 13:14:04;;;;;;;12.15;6.15;;;4.20;99.90;;;;;;5073561;28;20106;-54
2022/01/16 13:16:34;;;;;;;14.30;6.03;;;4.10;99.90;;;;;;5072668;28;20114;-52
2022/01/16 13:19:06;;;;;;;12.82;5.75;;;4.00;99.90;;;;;;5073524;28;20080;-54
2022/01/16 13:21:42;;;;;;;10.18;6.10;;;3.90;99.90;;;;;;5072555;28;20103;-55
2022/01/16 13:24:29;;;;;;;9.90;5.95;;;4.00;99.90;;;;;;5073198;28;20094;-55
2022/01/16 13:26:58;;;;;;;13.35;5.63;;;3.90;99.90;;;;;;5072823;28;20048;-55
2022/01/16 13:29:28;;;;;;;11.18;6.72;;;4.00;99.90;;;;;;5073043;28;20560;-56
2022/01/16 13:31:55;;;;;;;10.27;5.57;;;4.20;99.90;;;;;;5073139;28;20036;-54
2022/01/16 13:34:31;;;;;;;;;;;4.30;99.90;;;;;;5073541;28;20044;-57
2022/01/16 13:36:58;;;;;;;11.90;5.55;;;4.40;99.90;;;;;;5072467;28;19924;-55